Time;durP1;ratioP1;P1;durP2;ratioP2;P2;SDS_P1;SDS_P2;PMS_P1;PMS_P2;Temp;Humidity;BMP_temperature;BMP_pressure;BME280_temperature;BME280_humidity;BME280_pressure;Samples;Min_cycle;Max_cycle;Signal;HPM_P1;HPM_P2
2022/04/18 00:00:19;;;;;;;5.05;3.30;;;11.10;57.90;;;9.28;49.52;101030.69;5012190;28;20069;-75
2022/04/18 00:02:48;;;;;;;8.00;3.30;;;11.00;57.90;;;9.30;49.12;101031.38;5012528;28;20057;-74
2022/04/18 00:05:22;;;;;;;8.73;3.03;;;11.00;57.70;;;9.35;49.20;101041.78;5012756;28;20083;-74
2022/04/18 00:07:49;;;;;;;5.78;2.70;;;11.00;57.90;;;9.34;49.25;101032.75;5009544;28;20042;-74
2022/04/18 00:10:16;;;;;;;6.25;2.97;;;11.10;57.40;;;9.34;49.62;101034.63;5011077;28;20038;-75
2022/04/18 00:12:44;;;;;;;5.55;2.72;;;11.00;57.90;;;9.33;49.23;101030.22;5011175;28;20061;-74
2022/04/18 00:15:11;;;;;;;5.57;3.05;;;11.10;57.70;;;9.34;48.84;101030.03;5011825;28;20121;-75
2022/04/18 00:17:38;;;;;;;5.32;2.72;;;11.10;56.90;;;9.40;48.78;101031.25;5010519;28;20053;-74
2022/04/18 00:20:09;;;;;;;5.63;3.00;;;11.00;56.60;;;9.38;49.16;101025.97;5011763;28;20050;-75
2022/04/18 00:22:37;;;;;;;4.85;2.97;;;11.10;56.60;;;9.36;48.11;101025.28;5012085;28;20038;-75
2022/04/18 00:25:05;;;;;;;6.13;3.20;;;11.10;56.80;;;9.34;48.89;101019.16;5011985;28;20045;-74
2022/04/18 00:27:32;;;;;;;5.22;3.17;;;11.10;56.80;;;9.35;47.51;101020.88;5011434;28;20076;-75
2022/04/18 00:30:00;;;;;;;5.70;3.00;;;11.10;56.30;;;9.33;48.24;101016.66;5011665;28;20049;-74
2022/04/18 00:32:27;;;;;;;7.80;3.05;;;11.00;56.10;;;9.32;48.76;101021.19;5011872;28;20045;-75
2022/04/18 00:34:54;;;;;;;6.78;3.03;;;11.10;56.80;;;9.31;48.33;101018.66;5012071;28;20049;-75
2022/04/18 00:37:23;;;;;;;6.30;2.80;;;11.00;57.40;;;9.29;48.06;101010.69;5010278;28;20451;-75
2022/04/18 00:39:50;;;;;;;5.95;3.25;;;11.00;57.10;;;9.34;47.97;101021.03;5011608;28;20048;-74
2022/04/18 00:42:17;;;;;;;6.85;3.40;;;11.10;56.20;;;9.37;47.70;101007.16;5011749;28;20550;-75
2022/04/18 00:44:45;;;;;;;6.38;2.92;;;11.10;55.50;;;9.36;47.92;101010.88;5011321;28;20038;-74
2022/04/18 00:47:12;;;;;;;6.70;2.97;;;11.10;55.90;;;9.36;47.87;101019.00;5009851;28;20056;-74
2022/04/18 00:49:39;;;;;;;6.47;3.00;;;11.10;56.00;;;9.37;47.72;101016.13;5011413;28;20125;-74
2022/04/18 00:52:08;;;;;;;5.35;2.70;;;11.10;55.20;;;9.39;47.28;101014.09;5011250;28;20111;-75
2022/04/18 00:54:36;;;;;;;5.97;2.60;;;11.10;55.80;;;9.46;47.56;101010.72;5010800;28;20052;-75
2022/04/18 00:57:04;;;;;;;5.65;2.83;;;11.20;54.80;;;9.46;46.77;101008.88;5009794;28;20050;-75
2022/04/18 00:59:33;;;;;;;7.55;2.83;;;11.20;54.20;;;9.48;46.81;101001.41;5010684;28;20057;-74
2022/04/18 01:02:00;;;;;;;4.97;2.60;;;11.10;55.10;;;9.51;46.56;100997.50;5009994;28;20518;-74
2022/04/18 01:04:27;;;;;;;4.80;2.55;;;11.20;53.70;;;9.53;46.54;101004.47;5011456;28;20065;-75
2022/04/18 01:06:55;;;;;;;5.30;2.63;;;11.20;53.70;;;9.50;46.46;100999.38;5009938;28;20077;-75
2022/04/18 01:09:24;;;;;;;5.30;2.80;;;11.20;54.40;;;9.53;46.85;100999.03;5010007;28;20042;-74
2022/04/18 01:11:53;;;;;;;4.50;2.35;;;11.30;53.60;;;9.51;46.62;100990.19;5011022;28;20768;-75
2022/04/18 01:14:26;;;;;;;4.72;2.50;;;11.20;53.50;;;9.54;46.56;100989.88;5011192;28;20153;-74
2022/04/18 01:16:53;;;;;;;4.70;2.67;;;11.30;54.60;;;9.55;46.53;100993.44;5010972;28;20467;-74
2022/04/18 01:19:41;;;;;;;4.82;2.40;;;11.30;53.90;;;9.56;46.73;100995.16;4990132;28;20545;-74
2022/04/18 01:22:10;;;;;;;5.47;2.63;;;11.30;54.10;;;9.56;46.72;101000.59;4998198;28;20045;-74
2022/04/18 01:30:17;;;;;;;5.38;2.78;;;11.30;54.70;;;9.49;47.23;100983.22;5009466;28;20145;-74
2022/04/18 01:32:45;;;;;;;4.53;2.53;;;11.30;55.20;;;9.49;47.24;100977.81;5009403;28;20053;-74
2022/04/18 01:35:12;;;;;;;5.07;2.60;;;11.20;55.30;;;9.48;47.25;100984.25;5009764;28;20099;-74
2022/04/18 01:37:42;;;;;;;6.85;2.90;;;11.20;54.80;;;9.47;46.42;100985.28;5009285;28;20417;-75
2022/04/18 01:40:13;;;;;;;5.78;2.58;;;11.20;54.50;;;9.45;45.55;100984.59;5009502;28;20052;-74
2022/04/18 01:42:41;;;;;;;5.78;2.38;;;11.20;54.20;;;9.45;46.16;100982.72;5009471;28;20100;-74
2022/04/18 01:45:11;;;;;;;4.25;2.17;;;11.20;53.80;;;9.46;46.49;100979.00;5009572;28;20042;-74
2022/04/18 01:47:39;;;;;;;3.80;2.28;;;11.20;54.00;;;9.46;47.00;100978.13;5009335;28;20046;-75
2022/04/18 01:50:08;;;;;;;5.15;2.47;;;11.20;54.40;;;9.45;46.98;100979.16;5008860;28;20049;-75
2022/04/18 01:52:35;;;;;;;4.07;2.38;;;11.20;54.70;;;9.41;46.99;100970.47;5011585;28;20050;-75
2022/04/18 01:55:06;;;;;;;5.53;2.35;;;11.20;55.30;;;9.39;47.05;100970.66;5028485;28;20144;-75
2022/04/18 01:57:34;;;;;;;5.85;2.47;;;11.20;55.10;;;9.41;46.71;100970.47;5021698;28;20430;-75
2022/04/18 02:00:01;;;;;;;4.40;2.40;;;11.10;55.70;;;9.40;47.30;100963.34;5009033;28;20046;-74
2022/04/18 02:02:29;;;;;;;6.25;2.60;;;11.10;54.40;;;9.41;46.04;100961.50;5010132;28;20414;-75
2022/04/18 02:04:56;;;;;;;4.78;2.30;;;11.10;54.00;;;9.38;46.06;100963.50;5010586;28;20049;-74
2022/04/18 02:07:24;;;;;;;4.25;2.50;;;11.10;54.70;;;9.37;46.94;100956.38;5009301;28;20379;-74
2022/04/18 02:09:53;;;;;;;5.20;2.38;;;11.10;54.70;;;9.36;46.55;100960.09;5009129;28;20052;-74
2022/04/18 02:12:22;;;;;;;5.68;2.60;;;11.10;55.00;;;9.36;46.90;100959.25;5009120;28;20944;-74
2022/04/18 02:15:03;;;;;;;4.60;2.25;;;11.10;55.50;;;9.32;46.69;100966.88;5009050;28;20061;-74
2022/04/18 02:17:33;;;;;;;4.27;2.50;;;11.00;55.40;;;9.26;47.16;100956.69;5008149;28;20053;-74
2022/04/18 02:20:00;;;;;;;4.53;2.50;;;11.10;56.10;;;9.24;47.29;100955.16;5008851;28;20304;-74
2022/04/18 02:22:27;;;;;;;5.43;2.60;;;11.00;55.70;;;9.21;47.63;100956.31;5008833;28;20534;-74
2022/04/18 02:24:57;;;;;;;4.75;2.58;;;10.90;56.80;;;9.16;47.81;100953.28;5008932;28;20108;-74
2022/04/18 02:27:27;;;;;;;9.48;2.60;;;10.90;56.30;;;9.15;47.41;100952.41;5008564;28;20045;-75
2022/04/18 02:29:54;;;;;;;4.90;2.40;;;10.90;56.80;;;9.12;47.54;100946.44;4993727;28;20081;-74
2022/04/18 02:35:09;;;;;;;6.57;2.40;;;10.80;56.90;;;9.11;47.69;100950.19;5009101;28;20050;-74
2022/04/18 02:37:36;;;;;;;5.97;2.45;;;10.80;57.20;;;9.12;47.92;100949.16;5010010;28;20406;-74
2022/04/18 02:40:06;;;;;;;4.80;2.30;;;10.80;56.70;;;9.12;47.00;100941.88;5008859;28;20041;-74
2022/04/18 02:42:35;;;;;;;4.43;2.28;;;10.80;56.00;;;9.17;47.76;100942.22;5010368;28;20222;-75
2022/04/18 02:45:03;;;;;;;4.53;2.13;;;10.80;55.30;;;9.18;47.35;100945.81;5008381;28;20140;-75
2022/04/18 02:47:50;;;;;;;5.38;2.10;;;10.80;56.10;;;9.18;47.70;100940.38;5009982;28;20061;-75
2022/04/18 02:50:17;;;;;;;6.05;2.28;;;10.90;56.20;;;9.16;47.28;100935.09;5008396;28;20054;-74
2022/04/18 02:52:44;;;;;;;5.07;2.28;;;10.80;56.00;;;9.15;48.01;100927.97;5008753;28;20053;-74
2022/04/18 02:55:14;;;;;;;5.03;2.20;;;10.80;56.40;;;9.16;47.58;100926.13;5008458;28;20049;-75
2022/04/18 02:57:43;;;;;;;3.47;1.92;;;10.90;56.40;;;9.16;48.22;100920.69;5008481;28;20637;-75
2022/04/18 03:00:12;;;;;;;4.35;2.35;;;10.80;56.40;;;9.12;47.48;100924.72;5008605;28;20053;-75
2022/04/18 03:02:41;;;;;;;5.47;2.50;;;10.80;56.90;;;9.13;47.95;100921.00;5007346;28;20545;-75
2022/04/18 03:05:10;;;;;;;10.98;2.75;;;10.80;56.50;;;9.09;47.79;100914.22;5008434;28;20054;-75
2022/04/18 03:07:38;;;;;;;4.07;1.95;;;10.80;57.10;;;9.05;48.38;100908.25;5009607;28;20505;-75
2022/04/18 03:10:07;;;;;;;4.45;2.10;;;10.80;57.00;;;8.97;48.72;100900.94;5011689;28;20061;-75
2022/04/18 03:12:35;;;;;;;6.05;2.28;;;10.70;58.30;;;8.95;48.90;100900.25;5013258;28;20045;-74
2022/04/18 03:15:04;;;;;;;4.55;2.20;;;10.70;57.60;;;8.96;48.73;100906.53;5028548;28;20129;-75
2022/04/18 03:17:32;;;;;;;4.05;2.15;;;10.70;57.80;;;8.97;48.81;100895.50;5011702;28;20064;-75
2022/04/18 03:19:59;;;;;;;6.25;2.40;;;10.70;58.10;;;8.99;49.12;100903.50;5012000;28;20072;-74
2022/04/18 03:22:27;;;;;;;5.57;2.20;;;10.70;58.30;;;8.98;48.81;100904.50;5013083;28;20490;-75
2022/04/18 03:25:01;;;;;;;4.60;2.30;;;10.70;58.00;;;8.94;49.67;100901.25;5012034;28;20107;-75
2022/04/18 03:27:30;;;;;;;4.50;2.30;;;10.70;59.00;;;8.90;49.02;100897.19;5011372;28;20514;-75
2022/04/18 03:29:58;;;;;;;4.15;2.33;;;10.60;59.10;;;8.89;49.28;100900.91;4992164;28;20461;-75
2022/04/18 03:32:33;;;;;;;4.55;2.35;;;10.60;59.30;;;8.90;50.21;100899.88;5006067;28;20046;-75
2022/04/18 03:35:01;;;;;;;5.35;2.38;;;10.60;59.60;;;8.91;50.16;100895.31;5011899;28;20081;-75
2022/04/18 03:40:13;;;;;;;5.13;2.38;;;10.60;58.70;;;8.91;49.82;100898.00;5011693;28;20050;-75
2022/04/18 03:42:41;;;;;;;6.75;2.60;;;10.60;59.30;;;8.83;49.45;100898.00;5011314;28;20136;-75
2022/04/18 03:45:12;;;;;;;5.00;2.60;;;10.60;59.30;;;8.78;50.48;100902.06;5011355;28;21916;-74
2022/04/18 03:47:40;;;;;;;4.80;2.38;;;10.60;60.60;;;8.78;50.76;100895.78;5013687;28;20065;-74
2022/04/18 03:50:09;;;;;;;5.13;2.28;;;10.50;60.80;;;8.79;50.15;100897.47;5011255;28;20133;-74
2022/04/18 03:52:39;;;;;;;4.93;2.20;;;10.50;60.50;;;8.81;50.51;100898.16;5011768;28;20454;-75
2022/04/18 03:55:17;;;;;;;5.35;2.40;;;10.50;59.90;;;8.81;50.45;100895.44;5011639;28;20050;-74
2022/04/18 03:57:46;;;;;;;5.90;2.60;;;10.50;59.90;;;8.80;50.75;100899.19;5011373;28;20065;-75
2022/04/18 04:00:15;;;;;;;5.53;2.63;;;10.60;60.20;;;8.76;50.84;100895.09;5011376;28;20057;-75
2022/04/18 04:02:46;;;;;;;;;;;10.50;60.50;;;8.70;50.66;100898.44;5011492;28;20045;-74
2022/04/18 04:05:19;;;;;;;3.90;2.30;;;10.50;60.80;;;8.63;51.48;100887.41;5010829;28;20014;-74
2022/04/18 04:07:50;;;;;;;4.55;2.20;;;10.50;61.40;;;8.60;51.42;100895.84;5011319;28;20060;-74
2022/04/18 04:10:32;;;;;;;4.20;2.38;;;10.40;61.70;;;8.57;52.07;100899.75;5010816;28;20053;-74
2022/04/18 04:13:01;;;;;;;3.47;2.10;;;10.30;61.90;;;8.52;51.43;100899.38;5011311;28;20057;-74
2022/04/18 04:15:40;;;;;;;5.65;2.38;;;10.30;62.30;;;8.46;52.16;100899.19;5012466;28;20054;-74
2022/04/18 04:18:15;;;;;;;5.30;2.53;;;10.20;63.00;;;8.36;52.53;100900.13;5011088;28;20054;-74
2022/04/18 04:20:43;;;;;;;4.25;2.20;;;10.10;62.70;;;8.26;53.54;100895.81;5009438;28;20041;-74
2022/04/18 04:23:12;;;;;;;5.32;2.45;;;10.10;63.40;;;8.18;54.17;100893.91;5011234;28;20517;-75
2022/04/18 04:26:02;;;;;;;4.32;2.15;;;10.00;63.80;;;8.07;54.43;100896.88;5011714;28;20570;-74
2022/04/18 04:28:55;;;;;;;4.97;2.50;;;10.00;64.40;;;8.03;53.75;100897.22;5010821;28;20053;-74
2022/04/18 04:31:33;;;;;;;5.05;2.28;;;9.90;64.40;;;7.99;54.91;100903.94;5010707;28;20077;-74
2022/04/18 04:34:02;;;;;;;5.60;2.35;;;9.80;65.00;;;7.96;54.65;100895.28;5010356;28;20057;-74
2022/04/18 04:36:32;;;;;;;6.28;2.55;;;9.80;64.70;;;7.85;54.77;100898.25;5010893;28;20510;-75
2022/04/18 04:39:00;;;;;;;4.00;2.20;;;9.70;65.00;;;7.76;55.84;100900.03;5010240;28;20054;-74
2022/04/18 04:41:40;;;;;;;6.80;2.88;;;9.70;66.10;;;7.65;56.54;100903.84;5010710;28;20123;-74
2022/04/18 04:44:08;;;;;;;5.60;3.13;;;9.60;66.70;;;7.62;56.25;100904.16;5010012;28;20046;-74
2022/04/18 04:46:45;;;;;;;7.70;3.20;;;9.50;66.70;;;7.58;56.61;100895.50;5010568;28;20057;-74
2022/04/18 04:49:17;;;;;;;7.22;3.00;;;9.40;67.20;;;7.60;57.37;100900.75;5010320;28;20042;-74
2022/04/18 04:51:57;;;;;;;9.23;3.30;;;9.40;67.50;;;7.65;56.28;100898.41;5010405;28;20054;-74
2022/04/18 04:54:25;;;;;;;9.00;3.50;;;9.40;67.20;;;7.63;56.42;100903.13;5010137;28;20056;-74
2022/04/18 04:56:52;;;;;;;4.90;2.35;;;9.40;66.90;;;7.51;57.19;100907.09;5009916;28;20053;-74
2022/04/18 04:59:24;;;;;;;6.20;2.83;;;9.40;67.20;;;7.53;57.26;100910.50;5009612;28;20068;-74
2022/04/18 05:01:52;;;;;;;5.07;2.30;;;9.40;67.10;;;7.57;57.08;100907.31;5009930;28;20050;-74
2022/04/18 05:04:27;;;;;;;6.22;2.92;;;9.40;67.80;;;7.60;57.25;100908.88;5010359;28;20050;-74
2022/04/18 05:06:55;;;;;;;5.13;2.47;;;9.40;67.70;;;7.60;58.37;100914.31;5009902;28;20048;-74
2022/04/18 05:09:35;;;;;;;4.10;2.17;;;9.40;68.20;;;7.63;57.35;100917.56;5010134;28;20041;-74
2022/04/18 05:12:02;;;;;;;4.32;2.30;;;9.40;68.10;;;7.63;57.99;100916.69;5009748;28;20124;-74
2022/04/18 05:14:30;;;;;;;6.80;2.75;;;9.50;68.50;;;7.61;58.34;100921.41;5009670;28;20131;-74
2022/04/18 05:17:06;;;;;;;4.50;2.33;;;9.50;69.30;;;7.64;58.60;100923.81;5009866;28;20489;-74
2022/04/18 05:19:39;;;;;;;4.93;2.40;;;9.40;69.30;;;7.71;59.90;100919.47;5010149;28;20052;-74
2022/04/18 05:22:17;;;;;;;7.68;2.30;;;9.40;70.00;;;7.64;59.61;100923.81;5010017;28;20510;-74
2022/04/18 05:24:45;;;;;;;4.97;2.50;;;9.40;70.20;;;7.64;59.68;100927.38;5009686;28;20053;-74
2022/04/18 05:27:15;;;;;;;4.53;2.30;;;9.40;70.00;;;7.64;58.85;100924.66;5009788;28;20108;-74
2022/04/18 05:29:44;;;;;;;4.57;2.03;;;9.50;69.50;;;7.77;60.15;100935.09;5008999;28;20049;-74
2022/04/18 05:32:12;;;;;;;3.80;2.00;;;9.60;69.90;;;7.86;59.93;100932.47;5010869;28;20042;-74
2022/04/18 05:34:48;;;;;;;4.82;2.30;;;9.60;70.30;;;7.96;59.79;100933.25;5009474;28;20061;-74
2022/04/18 05:37:23;;;;;;;6.03;2.67;;;9.70;70.60;;;7.98;60.11;100931.22;5009560;28;20050;-74
2022/04/18 05:40:02;;;;;;;6.10;2.38;;;9.70;71.20;;;8.06;60.09;100936.69;5008880;28;20046;-73
2022/04/18 05:42:33;;;;;;;5.13;2.50;;;9.80;70.80;;;8.08;60.39;100931.97;5009505;28;20136;-74
2022/04/18 05:45:09;;;;;;;5.30;2.25;;;9.80;71.00;;;8.14;60.45;100934.03;4997920;28;20124;-74
2022/04/18 05:47:38;;;;;;;4.85;2.22;;;9.80;71.30;;;8.21;59.72;100934.25;5009118;28;20498;-74
2022/04/18 05:50:09;;;;;;;4.82;2.20;;;9.90;71.20;;;8.25;60.62;100930.22;5011918;28;20049;-74
2022/04/18 05:52:45;;;;;;;4.65;2.20;;;10.00;71.80;;;8.34;61.44;100931.09;5009173;28;20491;-74
2022/04/18 05:55:41;;;;;;;5.70;2.40;;;10.00;71.90;;;8.45;61.39;100930.88;4991047;28;20042;-74
2022/04/18 05:58:23;;;;;;;6.68;2.20;;;10.10;73.00;;;8.59;60.66;100929.44;4999024;28;20133;-74
2022/04/18 06:00:51;;;;;;;5.93;2.45;;;10.20;72.10;;;8.63;61.33;100933.53;5008976;28;20045;-74
2022/04/18 06:03:18;;;;;;;4.95;2.38;;;10.20;73.50;;;8.72;61.76;100928.97;5008974;28;20475;-74
2022/04/18 06:05:49;;;;;;;4.90;2.38;;;10.30;73.50;;;8.78;62.16;100928.34;5008680;28;20041;-74
2022/04/18 06:08:21;;;;;;;6.53;2.30;;;10.40;74.50;;;8.92;61.96;100924.16;4997462;28;20053;-75
2022/04/18 06:11:08;;;;;;;4.55;2.25;;;10.40;72.90;;;8.97;61.86;100928.09;5010012;28;20419;-74
2022/04/18 06:13:50;;;;;;;8.10;3.80;;;10.50;73.30;;;9.05;60.21;100929.97;5008676;28;20053;-74
2022/04/18 06:16:18;;;;;;;6.35;3.60;;;10.60;71.30;;;9.19;60.17;100933.91;5008950;28;20525;-77
2022/04/18 06:18:48;;;;;;;7.28;3.92;;;10.70;71.50;;;9.30;59.10;100930.03;5009004;28;20045;-75
2022/04/18 06:21:17;;;;;;;8.95;3.78;;;10.80;70.20;;;9.46;58.53;100929.22;5006597;28;20058;-75
2022/04/18 06:23:46;;;;;;;6.63;3.53;;;10.90;69.00;;;9.58;57.91;100931.47;5006028;28;20054;-76
2022/04/18 06:26:40;;;;;;;8.40;3.88;;;11.00;67.30;;;9.66;56.68;100933.34;5001205;28;20053;-76
2022/04/18 06:29:08;;;;;;;7.82;3.63;;;11.00;66.80;;;9.74;56.74;100930.63;5008511;28;20054;-75
2022/04/18 06:31:41;;;;;;;5.68;3.28;;;11.10;66.30;;;10.01;55.94;100927.72;5008893;28;20530;-74
2022/04/18 06:34:08;;;;;;;6.72;3.20;;;11.20;66.00;;;10.54;56.25;100942.66;5007697;28;20050;-74
2022/04/18 06:36:40;;;;;;;5.82;2.97;;;11.40;65.80;;;10.96;53.92;100934.16;5006152;28;20053;-75
2022/04/18 06:39:23;;;;;;;5.93;2.90;;;11.60;65.60;;;11.31;52.59;100940.13;5009004;28;20056;-75
2022/04/18 06:42:00;;;;;;;5.63;2.53;;;11.70;64.30;;;11.51;50.49;100934.22;5012770;28;20123;-75
2022/04/18 06:44:31;;;;;;;7.55;2.65;;;11.90;63.10;;;11.61;50.88;100939.41;5012206;28;20049;-74
2022/04/18 06:46:58;;;;;;;4.65;2.38;;;12.00;62.70;;;11.67;50.61;100939.56;5012107;28;20104;-74
2022/04/18 06:49:47;;;;;;;7.63;2.28;;;12.10;62.40;;;11.63;49.35;100946.41;5014087;28;20186;-75
2022/04/18 06:52:39;;;;;;;5.13;2.60;;;12.20;61.30;;;11.63;50.05;100943.69;5014143;28;20091;-74
2022/04/18 06:55:25;;;;;;;5.25;2.45;;;12.40;61.40;;;11.67;50.57;100942.28;5013828;28;20056;-75
2022/04/18 06:57:52;;;;;;;6.13;2.60;;;12.50;62.00;;;11.72;50.42;100941.72;5012676;28;20049;-74
2022/04/18 07:00:19;;;;;;;9.55;2.47;;;12.60;61.50;;;11.74;49.80;100940.50;5011271;28;20153;-75
2022/04/18 07:02:47;;;;;;;6.68;2.38;;;12.60;61.00;;;11.82;50.04;100933.31;5012025;28;20341;-75
2022/04/18 07:05:14;;;;;;;5.95;2.30;;;12.70;60.70;;;11.91;49.90;100934.97;5012289;28;20134;-75
2022/04/18 07:07:43;;;;;;;4.25;2.38;;;12.80;60.60;;;12.01;50.53;100941.00;5012151;28;20049;-75
2022/04/18 07:10:10;;;;;;;6.03;2.28;;;12.90;61.80;;;12.11;50.90;100936.16;5011764;28;20128;-75
2022/04/18 07:12:38;;;;;;;4.65;2.40;;;13.00;61.80;;;12.21;49.87;100937.78;5011136;28;20053;-75
2022/04/18 07:15:07;;;;;;;4.75;2.30;;;13.00;60.90;;;12.39;50.03;100934.69;5013060;28;20046;-75
2022/04/18 07:17:35;;;;;;;3.85;2.00;;;13.20;60.80;;;12.46;48.34;100931.03;4992622;28;20042;-75
2022/04/18 07:20:07;;;;;;;3.72;2.10;;;13.30;58.40;;;12.58;48.66;100930.56;4992344;28;20054;-74
2022/04/18 07:22:39;;;;;;;4.85;2.20;;;13.40;59.20;;;12.67;47.96;100937.66;5011909;28;20417;-76
2022/04/18 07:25:10;;;;;;;7.80;2.35;;;13.50;58.10;;;12.74;47.40;100935.00;5036932;22;20045;-83
2022/04/18 07:27:40;;;;;;;5.38;1.98;;;13.60;57.50;;;12.83;47.46;100932.00;5034193;28;20132;-82
2022/04/18 07:30:10;;;;;;;4.55;2.22;;;13.70;57.50;;;12.92;48.43;100932.72;5031843;28;20053;-82
2022/04/18 07:32:43;;;;;;;5.75;2.35;;;13.80;59.70;;;13.02;48.62;100932.44;5034311;28;20057;-82
2022/04/18 07:35:15;;;;;;;4.38;2.05;;;13.90;60.90;;;13.11;49.43;100934.03;5019626;28;20069;-83
2022/04/18 07:40:48;;;;;;;5.40;2.40;;;14.10;61.00;;;13.30;49.14;100930.72;5014518;28;20057;-82
2022/04/18 07:43:17;;;;;;;7.70;2.25;;;14.20;61.20;;;13.39;48.13;100928.72;4995761;28;20038;-82
2022/04/18 07:45:44;;;;;;;5.18;2.72;;;14.20;59.70;;;13.48;47.75;100926.72;5001914;28;20133;-82
2022/04/18 07:48:14;;;;;;;5.35;2.03;;;14.30;57.20;;;13.56;47.58;100928.50;5012615;28;20046;-81
2022/04/18 07:53:31;;;;;;;4.93;2.50;;;14.50;56.60;;;13.71;47.26;100920.22;5030926;28;20077;-86
2022/04/18 07:56:00;;;;;;;3.65;2.10;;;14.50;57.90;;;13.76;46.39;100923.22;5026318;28;20063;-85
2022/04/18 07:58:29;;;;;;;;;;;14.60;55.80;;;13.86;47.31;100923.75;5026560;28;20045;-85
2022/04/18 08:00:57;;;;;;;3.53;1.90;;;14.70;57.50;;;13.88;45.70;100924.41;5017811;28;19921;-85
2022/04/18 08:03:24;;;;;;;3.88;2.10;;;14.70;55.00;;;13.94;46.44;100923.59;5002337;28;20041;-88
2022/04/18 08:05:56;;;;;;;4.40;1.95;;;14.80;57.00;;;14.04;46.72;100918.63;5027821;28;20050;-90
2022/04/18 08:08:30;;;;;;;5.22;2.47;;;14.90;57.00;;;14.14;47.22;100914.72;5017995;28;20042;-85
2022/04/18 08:10:59;;;;;;;5.95;2.58;;;15.00;56.00;;;14.14;45.02;100914.72;5008882;28;20053;-82
2022/04/18 08:13:28;;;;;;;5.30;2.53;;;15.00;54.60;;;14.20;45.36;100917.50;5016957;28;20057;-82
2022/04/18 08:16:14;;;;;;;7.13;2.22;;;15.10;55.30;;;14.30;44.45;100913.56;5029295;28;20490;-81
2022/04/18 08:18:47;;;;;;;6.60;2.55;;;15.20;55.40;;;14.32;44.59;100912.31;5028822;28;20129;-85
2022/04/18 08:21:26;;;;;;;4.13;2.40;;;15.10;55.10;;;14.45;45.81;100920.63;5014817;28;20089;-85
2022/04/18 08:23:54;;;;;;;5.35;2.50;;;15.30;56.00;;;14.53;45.77;100918.78;5029340;28;20083;-86
2022/04/18 08:26:29;;;;;;;5.57;2.20;;;15.40;55.80;;;14.57;45.22;100915.47;5030378;28;20103;-85
2022/04/18 08:28:59;;;;;;;5.65;2.50;;;15.40;55.80;;;14.65;44.20;100922.69;5012672;28;20053;-85
2022/04/18 08:31:27;;;;;;;6.18;2.60;;;15.50;53.20;;;14.62;44.78;100912.13;5013465;28;20558;-85
2022/04/18 08:34:03;;;;;;;4.40;2.40;;;15.50;55.40;;;14.68;44.14;100911.34;5011407;28;20050;-86
2022/04/18 08:36:32;;;;;;;4.72;2.50;;;15.50;52.10;;;14.67;43.92;100915.09;5022967;28;20091;-85
2022/04/18 08:39:01;;;;;;;5.18;2.60;;;15.50;53.80;;;14.69;42.51;100910.28;5026052;28;20048;-86
2022/04/18 08:41:39;;;;;;;6.00;2.80;;;15.50;52.80;;;14.70;41.97;100903.75;5015889;28;20524;-85
2022/04/18 08:44:13;;;;;;;6.10;2.63;;;15.50;53.30;;;14.73;43.22;100907.97;5012605;28;20051;-85
2022/04/18 08:46:42;;;;;;;6.15;2.53;;;15.60;53.60;;;14.81;43.91;100905.94;5028955;28;20103;-85
2022/04/18 08:54:48;;;;;;;4.50;2.30;;;15.70;51.00;;;14.77;42.00;100899.13;5018035;28;20646;-86
2022/04/18 08:57:17;;;;;;;4.47;2.10;;;15.70;52.30;;;14.81;42.14;100897.72;5026461;28;20042;-86
2022/04/18 08:59:47;;;;;;;4.78;2.53;;;15.70;52.30;;;14.82;41.19;100896.63;5014055;28;20052;-86
2022/04/18 09:02:15;;;;;;;6.53;2.40;;;15.80;51.10;;;14.83;43.03;100892.00;5010184;28;20392;-85
2022/04/18 09:05:01;;;;;;;5.72;2.40;;;15.80;54.10;;;14.92;43.42;100895.41;5011869;28;20517;-86
2022/04/18 09:07:32;;;;;;;7.05;2.80;;;15.90;54.40;;;15.01;43.19;100902.41;5016030;28;20057;-86
2022/04/18 09:10:04;;;;;;;5.97;2.80;;;16.10;52.80;;;14.98;41.63;100895.47;5009333;28;20041;-85
2022/04/18 09:12:33;;;;;;;4.45;2.50;;;16.00;49.20;;;14.95;39.89;100895.03;5008401;28;20107;-85
2022/04/18 09:15:31;;;;;;;4.88;2.40;;;16.00;48.30;;;14.99;40.88;100886.19;5029429;28;20065;-86
2022/04/18 09:18:13;;;;;;;4.75;2.47;;;16.00;50.30;;;15.05;41.09;100890.00;5011997;28;20038;-85
2022/04/18 09:21:06;;;;;;;5.43;2.58;;;16.10;51.20;;;15.07;40.01;100882.41;5014383;28;20140;-86
2022/04/18 09:23:40;;;;;;;5.28;2.45;;;16.20;48.80;;;14.99;38.49;100880.69;5028998;28;20057;-85
2022/04/18 09:26:25;;;;;;;7.32;2.78;;;16.10;47.70;;;14.98;39.13;100883.63;5012782;28;20128;-85
2022/04/18 09:29:05;;;;;;;5.03;2.30;;;16.10;48.40;;;15.10;41.79;100870.19;5012775;28;20115;-86
2022/04/18 09:31:41;;;;;;;3.90;2.15;;;16.20;53.10;;;15.22;41.62;100869.38;5012540;28;20100;-86
2022/04/18 09:34:21;;;;;;;4.60;2.35;;;16.40;51.50;;;15.33;40.81;100865.19;5015643;28;20050;-86
2022/04/18 09:36:48;;;;;;;6.05;2.30;;;16.40;50.40;;;15.40;41.80;100862.44;5002738;28;20111;-86
2022/04/18 09:39:24;;;;;;;4.65;2.10;;;16.50;52.50;;;15.41;40.85;100859.50;5012864;28;20045;-86
2022/04/18 09:42:11;;;;;;;4.47;2.55;;;16.50;50.10;;;15.35;39.81;100857.59;5012516;28;20052;-86
2022/04/18 09:45:00;;;;;;;4.63;2.17;;;16.50;46.00;;;15.29;38.21;100855.69;5010109;28;20103;-86
2022/04/18 09:47:35;;;;;;;6.65;2.60;;;16.50;46.70;;;15.29;37.71;100854.84;5013059;28;20524;-86
2022/04/18 09:50:58;;;;;;;5.68;2.30;;;16.50;47.50;;;15.31;38.91;100850.84;4992735;28;20053;-86
2022/04/18 09:53:18;;;;;;;5.15;2.47;;;16.50;48.60;;;15.41;40.01;100844.97;5008438;28;20040;-86
2022/04/18 09:55:47;;;;;;;5.03;2.15;;;16.60;49.30;;;15.40;38.14;100849.59;5018687;28;20127;-86
2022/04/18 09:58:14;;;;;;;4.90;2.40;;;16.60;45.80;;;15.40;38.24;100835.03;5022004;28;20573;-86
2022/04/18 10:00:44;;;;;;;5.75;2.47;;;16.50;46.90;;;15.40;38.80;100837.78;5017962;28;20065;-78
2022/04/18 10:03:11;;;;;;;4.60;2.25;;;16.60;48.10;;;15.33;36.70;100831.47;5029417;28;20524;-77
2022/04/18 10:05:40;;;;;;;6.55;2.63;;;16.50;44.60;;;15.30;36.21;100838.19;5028509;28;20409;-78
2022/04/18 10:08:08;;;;;;;5.38;2.20;;;16.40;44.90;;;15.31;35.94;100820.69;5025355;28;20049;-78
2022/04/18 10:10:40;;;;;;;5.05;2.25;;;16.40;44.50;;;15.29;36.46;100830.16;5026143;28;20048;-78
2022/04/18 10:13:08;;;;;;;4.30;2.30;;;16.40;45.20;;;15.27;36.48;100824.03;5021010;28;20046;-76
2022/04/18 10:15:36;;;;;;;4.70;2.42;;;16.40;45.30;;;15.33;37.36;100815.00;5020965;28;20041;-77
2022/04/18 10:18:07;;;;;;;5.15;2.30;;;16.50;46.60;;;15.36;37.46;100814.56;5027138;28;20075;-78
2022/04/18 10:20:54;;;;;;;5.47;2.00;;;16.50;46.70;;;15.35;37.55;100812.91;5028612;28;20482;-77
2022/04/18 10:23:51;;;;;;;5.93;2.20;;;16.40;46.60;;;15.38;36.80;100807.84;5024267;28;20043;-78
2022/04/18 10:27:27;;;;;;;6.70;2.10;;;16.40;46.10;;;15.35;36.56;100804.66;5025991;28;20485;-78
2022/04/18 10:29:59;;;;;;;5.68;2.00;;;16.40;44.90;;;15.40;37.91;100802.13;4986681;28;20046;-77
2022/04/18 10:32:27;;;;;;;;;;;16.50;46.90;;;15.42;34.80;100802.75;4987467;28;20073;-76
2022/04/18 10:35:01;;;;;;;4.10;2.20;;;16.50;43.70;;;15.38;35.63;100796.00;5016999;28;19931;-76
2022/04/18 10:37:30;;;;;;;4.30;2.20;;;16.50;43.80;;;15.39;35.26;100792.22;5025843;28;20069;-76
2022/04/18 10:40:00;;;;;;;4.40;1.92;;;16.50;43.80;;;15.40;35.77;100793.88;5028343;28;20029;-76
2022/04/18 10:42:34;;;;;;;4.97;2.20;;;16.50;44.30;;;15.45;35.75;100794.94;5019118;28;20479;-76
2022/04/18 10:45:11;;;;;;;5.18;2.20;;;16.50;44.30;;;15.45;36.68;100791.38;5010131;28;20058;-76
2022/04/18 10:48:10;;;;;;;5.68;2.10;;;16.50;45.10;;;15.48;36.33;100793.72;5025980;28;20041;-76
2022/04/18 10:50:55;;;;;;;3.38;1.95;;;16.60;45.20;;;15.47;35.73;100792.00;5015273;28;20603;-76
2022/04/18 10:57:27;;;;;;;5.20;2.03;;;16.60;45.30;;;15.50;35.95;100780.63;5017148;28;20055;-76
2022/04/18 10:59:56;;;;;;;3.80;1.92;;;16.60;44.20;;;15.51;35.84;100778.72;5019384;28;20053;-76
2022/04/18 11:02:41;;;;;;;4.03;2.17;;;16.60;44.20;;;15.49;33.89;100773.44;5022353;28;20052;-76
2022/04/18 11:05:09;;;;;;;4.22;2.00;;;16.60;41.80;;;15.49;33.69;100781.66;5016975;28;20120;-75